Time;durP1;ratioP1;P1;durP2;ratioP2;P2;SDS_P1;SDS_P2;PMS_P1;PMS_P2;Temp;Humidity;BMP_temperature;BMP_pressure;BME280_temperature;BME280_humidity;BME280_pressure;Samples;Min_cycle;Max_cycle;Signal;HPM_P1;HPM_P2
2023/05/22 00:01:11;;;;;;;25.35;19.95;;;20.40;58.60;;;;;;5012269;28;20054;-48
2023/05/22 00:03:39;;;;;;;23.35;18.33;;;20.40;58.70;;;;;;5015041;28;20064;-47
2023/05/22 00:06:08;;;;;;;25.08;18.08;;;20.40;58.70;;;;;;5017418;28;20056;-49
2023/05/22 00:08:36;;;;;;;22.85;17.63;;;20.40;58.60;;;;;;5014958;28;20049;-48
2023/05/22 00:11:05;;;;;;;25.00;18.75;;;20.30;58.50;;;;;;5013897;28;20053;-48
2023/05/22 00:13:32;;;;;;;26.92;19.17;;;20.30;58.50;;;;;;5014713;28;20045;-51
2023/05/22 00:15:59;;;;;;;23.17;17.67;;;20.30;58.40;;;;;;5014998;28;20581;-51
2023/05/22 00:18:26;;;;;;;26.45;20.05;;;20.30;58.40;;;;;;5018997;28;20054;-48
2023/05/22 00:20:54;;;;;;;25.08;19.33;;;20.20;58.30;;;;;;5012078;28;20046;-46
2023/05/22 00:23:21;;;;;;;27.95;19.95;;;20.20;58.30;;;;;;5017885;28;20050;-50
2023/05/22 00:25:49;;;;;;;26.67;19.58;;;20.20;58.30;;;;;;5014374;28;20060;-48
2023/05/22 00:28:18;;;;;;;28.20;19.77;;;20.20;58.30;;;;;;5014100;28;20053;-50
2023/05/22 00:30:45;;;;;;;26.75;20.13;;;20.20;58.40;;;;;;5013536;28;20477;-51
2023/05/22 00:33:12;;;;;;;30.95;21.45;;;20.20;58.30;;;;;;5017696;28;20473;-50
2023/05/22 00:35:39;;;;;;;26.60;20.17;;;20.10;58.30;;;;;;5015090;28;20068;-47
2023/05/22 00:38:08;;;;;;;26.58;20.35;;;20.10;58.30;;;;;;5016588;28;20502;-48
2023/05/22 00:40:36;;;;;;;25.17;19.40;;;20.10;58.40;;;;;;5015547;28;20049;-51
2023/05/22 00:43:07;;;;;;;27.60;19.70;;;20.10;58.40;;;;;;5014791;28;20120;-51
2023/05/22 00:45:35;;;;;;;26.42;20.05;;;20.00;58.40;;;;;;5012262;28;20056;-47
2023/05/22 00:48:03;;;;;;;29.45;21.33;;;20.00;58.40;;;;;;5015191;28;20049;-46
2023/05/22 00:50:30;;;;;;;27.85;20.40;;;20.00;58.50;;;;;;5012403;28;20054;-47
2023/05/22 00:52:57;;;;;;;28.90;18.90;;;20.00;58.50;;;;;;5014631;28;20057;-47
2023/05/22 00:55:24;;;;;;;26.38;20.33;;;19.90;58.50;;;;;;5012283;28;20065;-49
2023/05/22 00:57:52;;;;;;;30.02;22.92;;;19.90;58.50;;;;;;5016661;28;20137;-52
2023/05/22 01:00:33;;;;;;;28.92;21.25;;;19.90;58.60;;;;;;5017417;23;20064;-90
2023/05/22 01:03:02;;;;;;;29.33;21.80;;;19.80;58.70;;;;;;5003546;28;20635;-87
2023/05/22 01:05:29;;;;;;;32.10;22.33;;;19.80;58.70;;;;;;5005907;28;20050;-89
2023/05/22 01:07:57;;;;;;;30.70;22.63;;;19.90;59.20;;;;;;5011570;28;20053;-88
2023/05/22 01:10:26;;;;;;;31.95;23.80;;;19.80;58.80;;;;;;5001624;28;20042;-87
2023/05/22 01:13:04;;;;;;;31.15;22.70;;;19.80;58.80;;;;;;5005928;28;20499;-86
2023/05/22 01:15:38;;;;;;;31.80;23.63;;;19.80;59.00;;;;;;5009105;28;20049;-87
2023/05/22 01:18:18;;;;;;;30.77;22.55;;;19.80;58.90;;;;;;5007124;28;20049;-88
2023/05/22 01:20:53;;;;;;;30.15;21.60;;;19.80;59.00;;;;;;5007935;28;20413;-89
2023/05/22 01:23:52;;;;;;;32.50;22.92;;;19.80;58.90;;;;;;5005261;28;20065;-87
2023/05/22 01:26:42;;;;;;;39.72;27.60;;;19.70;59.00;;;;;;5008445;28;20063;-88
2023/05/22 01:29:22;;;;;;;32.95;23.83;;;19.70;59.30;;;;;;5009996;28;20053;-87
2023/05/22 01:31:53;;;;;;;33.72;24.17;;;19.80;59.20;;;;;;5004062;28;20632;-88
2023/05/22 01:34:21;;;;;;;32.55;24.63;;;19.70;59.10;;;;;;5009613;28;20528;-87
2023/05/22 01:36:52;;;;;;;32.75;23.42;;;19.70;59.10;;;;;;5010144;28;20056;-87
2023/05/22 01:39:19;;;;;;;31.65;22.90;;;19.70;59.10;;;;;;5008294;28;20057;-87
2023/05/22 01:41:47;;;;;;;30.83;22.38;;;19.70;59.10;;;;;;5005106;28;20498;-87
2023/05/22 01:44:19;;;;;;;28.75;22.30;;;19.70;59.10;;;;;;5008442;28;20057;-88
2023/05/22 01:46:46;;;;;;;31.30;22.77;;;19.70;59.20;;;;;;5000357;28;20405;-88
2023/05/22 01:49:16;;;;;;;33.05;22.40;;;19.60;59.10;;;;;;5009310;28;20064;-87
2023/05/22 01:51:53;;;;;;;31.95;23.55;;;19.60;59.20;;;;;;5004918;28;20417;-86
2023/05/22 01:54:29;;;;;;;32.90;24.05;;;19.60;59.30;;;;;;5008158;28;20053;-86
2023/05/22 01:57:02;;;;;;;31.75;23.10;;;19.60;59.20;;;;;;5004095;28;20508;-88
2023/05/22 01:59:36;;;;;;;29.45;22.70;;;19.60;59.20;;;;;;5005562;28;20053;-88
2023/05/22 02:02:07;;;;;;;33.28;23.42;;;19.50;59.10;;;;;;5010678;28;20049;-87
2023/05/22 02:04:42;;;;;;;33.35;25.02;;;19.60;59.20;;;;;;5005713;28;20053;-86
2023/05/22 02:07:12;;;;;;;32.70;23.40;;;19.50;59.20;;;;;;5009677;28;20072;-87
2023/05/22 02:09:41;;;;;;;30.20;21.95;;;19.50;59.10;;;;;;5011071;28;20060;-87
2023/05/22 02:12:09;;;;;;;27.90;21.35;;;19.50;59.10;;;;;;5007755;28;20049;-87
2023/05/22 02:14:37;;;;;;;35.22;23.55;;;19.40;59.00;;;;;;5008404;28;20424;-87
2023/05/22 02:17:06;;;;;;;34.30;25.40;;;19.40;59.10;;;;;;5005397;28;20053;-88
2023/05/22 02:19:36;;;;;;;33.60;22.10;;;19.40;59.10;;;;;;5008408;28;20065;-87
2023/05/22 02:22:03;;;;;;;34.47;24.52;;;19.40;59.10;;;;;;5005076;28;20099;-88
2023/05/22 02:24:32;;;;;;;42.47;30.33;;;19.40;59.10;;;;;;5011817;28;20500;-87
2023/05/22 02:27:00;;;;;;;39.47;28.73;;;19.30;59.50;;;;;;5009967;28;20046;-88
2023/05/22 02:29:27;;;;;;;36.55;25.70;;;19.30;59.70;;;;;;5008400;28;20072;-87
2023/05/22 02:31:55;;;;;;;38.22;27.00;;;19.30;59.60;;;;;;5009245;28;20045;-87
2023/05/22 02:34:22;;;;;;;38.58;26.50;;;19.30;59.90;;;;;;5008651;28;20413;-87
2023/05/22 02:36:51;;;;;;;38.33;26.23;;;19.30;60.00;;;;;;5006677;28;20054;-87
2023/05/22 02:39:19;;;;;;;35.97;25.33;;;19.20;60.00;;;;;;5008968;28;20065;-88
2023/05/22 02:41:46;;;;;;;33.97;24.85;;;19.20;60.00;;;;;;5006840;28;20049;-87
2023/05/22 02:44:13;;;;;;;31.60;22.90;;;19.20;60.00;;;;;;5007301;28;20061;-88
2023/05/22 02:46:41;;;;;;;32.42;23.45;;;19.20;59.90;;;;;;5003882;28;20420;-88
2023/05/22 02:49:08;;;;;;;32.20;24.38;;;19.20;59.90;;;;;;5010252;28;20056;-88
2023/05/22 02:51:36;;;;;;;28.60;21.58;;;19.10;59.80;;;;;;5008132;28;20049;-88
2023/05/22 02:54:05;;;;;;;30.38;21.90;;;19.10;59.80;;;;;;5008247;28;20060;-87
2023/05/22 02:56:32;;;;;;;29.40;21.30;;;19.10;59.70;;;;;;5012243;28;20049;-88
2023/05/22 02:58:59;;;;;;;29.80;21.35;;;19.10;59.70;;;;;;5006415;28;20050;-87
2023/05/22 03:01:29;;;;;;;30.50;21.55;;;19.10;59.60;;;;;;5002451;28;20058;-89
2023/05/22 03:03:56;;;;;;;28.27;20.85;;;19.00;59.60;;;;;;5008307;28;20049;-87
2023/05/22 03:06:24;;;;;;;35.85;23.77;;;19.00;59.60;;;;;;5004304;28;20049;-88
2023/05/22 03:08:52;;;;;;;34.15;25.25;;;19.00;59.60;;;;;;5001523;28;20061;-86
2023/05/22 03:11:20;;;;;;;35.65;24.88;;;19.00;59.70;;;;;;5007549;28;20057;-87
2023/05/22 03:13:48;;;;;;;30.45;22.77;;;18.90;59.60;;;;;;5008701;28;20057;-88
2023/05/22 03:16:18;;;;;;;35.03;25.00;;;18.90;59.60;;;;;;5006735;28;20519;-88
2023/05/22 03:18:46;;;;;;;31.02;23.38;;;18.90;59.80;;;;;;5008398;28;20092;-85
2023/05/22 03:21:16;;;;;;;36.92;24.98;;;18.90;59.70;;;;;;5005400;28;20413;-86
2023/05/22 03:23:45;;;;;;;33.58;24.40;;;18.90;59.80;;;;;;5008447;28;20048;-86
2023/05/22 03:26:14;;;;;;;33.72;24.42;;;18.80;59.70;;;;;;5010832;28;20477;-87
2023/05/22 03:28:43;;;;;;;34.60;24.65;;;18.80;59.80;;;;;;5010249;28;20231;-85
2023/05/22 03:31:10;;;;;;;34.88;25.00;;;18.80;59.80;;;;;;5007880;28;20516;-85
2023/05/22 03:33:38;;;;;;;44.63;26.35;;;18.80;59.90;;;;;;5003847;28;20061;-87
2023/05/22 03:36:08;;;;;;;36.25;24.67;;;18.80;59.90;;;;;;5005415;28;20429;-87
2023/05/22 03:38:36;;;;;;;34.78;25.27;;;18.80;60.10;;;;;;5003134;28;20065;-86
2023/05/22 03:41:03;;;;;;;37.15;26.88;;;18.80;60.10;;;;;;4993394;28;20668;-86
2023/05/22 03:43:31;;;;;;;34.72;24.58;;;18.80;60.20;;;;;;5005062;28;20049;-86
2023/05/22 03:46:00;;;;;;;35.88;24.73;;;18.80;60.30;;;;;;5003799;28;20078;-88
2023/05/22 03:48:27;;;;;;;33.00;23.85;;;18.80;60.40;;;;;;5004394;28;20130;-87
2023/05/22 03:50:55;;;;;;;34.88;25.17;;;18.80;60.30;;;;;;5003766;28;20647;-87
2023/05/22 03:53:23;;;;;;;32.85;23.90;;;18.80;60.40;;;;;;5003895;28;20053;-87
2023/05/22 03:55:50;;;;;;;36.22;25.98;;;18.80;60.40;;;;;;5004222;28;20054;-87
2023/05/22 03:58:18;;;;;;;32.92;23.80;;;18.80;60.40;;;;;;5005252;28;20053;-88
2023/05/22 04:00:46;;;;;;;40.88;27.98;;;18.70;60.40;;;;;;5001219;28;20421;-88
2023/05/22 04:03:18;;;;;;;42.78;29.95;;;18.80;60.70;;;;;;5011565;28;20966;-86
2023/05/22 04:05:45;;;;;;;43.47;30.30;;;18.80;61.00;;;;;;5008897;28;20049;-87
2023/05/22 04:08:13;;;;;;;42.92;29.67;;;18.80;61.30;;;;;;5003779;28;20501;-87
2023/05/22 04:10:45;;;;;;;42.47;29.17;;;18.80;61.50;;;;;;5005435;28;20062;-87
2023/05/22 04:13:13;;;;;;;38.65;27.63;;;18.80;61.60;;;;;;5003961;28;20077;-87
2023/05/22 04:15:42;;;;;;;44.78;28.75;;;18.80;61.70;;;;;;4999958;28;20425;-87
2023/05/22 04:18:10;;;;;;;38.22;27.38;;;18.70;61.80;;;;;;5000926;28;20412;-87
2023/05/22 04:20:40;;;;;;;44.70;30.38;;;18.80;62.00;;;;;;4999688;28;20066;-87
2023/05/22 04:23:08;;;;;;;38.95;28.27;;;18.80;62.10;;;;;;5004217;28;20052;-88
2023/05/22 04:25:36;;;;;;;42.28;29.58;;;18.80;62.20;;;;;;5002866;28;20049;-86
2023/05/22 04:28:03;;;;;;;43.22;31.60;;;18.90;62.40;;;;;;5003758;28;20053;-87
2023/05/22 04:30:35;;;;;;;40.13;27.42;;;18.90;62.50;;;;;;5005569;28;20469;-88
2023/05/22 04:33:05;;;;;;;42.78;30.25;;;18.90;62.60;;;;;;5003726;28;20041;-87
2023/05/22 04:35:37;;;;;;;44.78;30.73;;;18.90;62.60;;;;;;5004448;28;20071;-87
2023/05/22 04:38:11;;;;;;;44.95;31.83;;;18.90;62.70;;;;;;5000927;28;20489;-85
2023/05/22 04:40:51;;;;;;;48.00;31.02;;;18.90;62.80;;;;;;5003425;28;20560;-86
2023/05/22 04:43:19;;;;;;;42.83;30.30;;;18.90;63.00;;;;;;5003398;28;20410;-87
2023/05/22 04:45:50;;;;;;;45.60;29.10;;;18.90;63.00;;;;;;4997704;28;20575;-88
2023/05/22 04:48:18;;;;;;;53.40;35.53;;;18.90;63.10;;;;;;5015716;22;20061;-87
2023/05/22 04:50:50;;;;;;;71.68;41.50;;;19.00;63.20;;;;;;4981449;28;20394;-88
2023/05/22 04:53:29;;;;;;;50.50;33.70;;;19.00;63.20;;;;;;4980507;28;20394;-89
2023/05/22 04:56:23;;;;;;;41.63;30.00;;;19.00;63.30;;;;;;4977248;28;20061;-90
2023/05/22 04:58:56;;;;;;;40.87;28.07;;;19.00;63.50;;;;;;4977818;28;20058;-88
2023/05/22 05:04:14;;;;;;;37.28;24.90;;;19.10;63.10;;;;;;4976432;28;20407;-87
2023/05/22 05:06:45;;;;;;;43.45;28.08;;;19.10;62.90;;;;;;4984972;28;20057;-88
2023/05/22 05:09:18;;;;;;;46.03;30.38;;;19.20;63.00;;;;;;4978581;28;20069;-89
2023/05/22 05:11:48;;;;;;;44.92;29.23;;;19.10;62.90;;;;;;4980831;28;20069;-92
2023/05/22 05:14:18;;;;;;;45.35;32.13;;;19.20;63.00;;;;;;4979425;28;20061;-92
2023/05/22 05:16:46;;;;;;;38.17;27.05;;;19.20;63.10;;;;;;4975452;28;20069;-89
2023/05/22 05:19:34;;;;;;;44.42;29.77;;;19.20;63.00;;;;;;4979367;28;20514;-89
2023/05/22 05:22:05;;;;;;;39.83;28.85;;;19.20;63.10;;;;;;4979663;28;20054;-92
2023/05/22 05:24:47;;;;;;;43.60;29.30;;;19.20;63.20;;;;;;4984801;28;20042;-88
2023/05/22 05:27:15;;;;;;;44.63;30.20;;;19.30;63.40;;;;;;4980775;28;20062;-91
2023/05/22 05:29:45;;;;;;;42.58;29.50;;;19.30;63.30;;;;;;4978103;28;20053;-89
2023/05/22 05:32:13;;;;;;;42.53;30.00;;;19.30;63.30;;;;;;4977740;28;20494;-90
2023/05/22 05:34:55;;;;;;;41.85;29.63;;;19.30;63.50;;;;;;4980930;28;20356;-89
2023/05/22 05:37:27;;;;;;;43.13;30.05;;;19.40;63.60;;;;;;5042597;23;20508;-88
2023/05/22 05:40:00;;;;;;;40.85;29.60;;;19.40;63.40;;;;;;4997819;28;20658;-90
2023/05/22 05:42:28;;;;;;;39.88;28.65;;;19.40;63.50;;;;;;5007049;28;20050;-89
2023/05/22 05:44:56;;;;;;;44.35;30.70;;;19.40;64.20;;;;;;4999358;28;20137;-89
2023/05/22 05:47:25;;;;;;;46.22;32.88;;;19.50;63.80;;;;;;4996561;28;20065;-89
2023/05/22 05:49:52;;;;;;;52.22;33.78;;;19.50;63.90;;;;;;4997902;28;20054;-90
2023/05/22 05:52:20;;;;;;;43.97;29.95;;;19.50;63.80;;;;;;4998778;28;20045;-90
2023/05/22 05:54:47;;;;;;;48.40;32.78;;;19.50;63.60;;;;;;5000943;28;20053;-90
2023/05/22 05:57:20;;;;;;;47.08;32.92;;;19.50;63.80;;;;;;4997954;28;20456;-92
2023/05/22 05:59:48;;;;;;;39.72;28.75;;;19.50;64.00;;;;;;4998222;28;20053;-89
2023/05/22 06:02:15;;;;;;;45.85;32.83;;;19.60;64.00;;;;;;4997135;28;20054;-88
2023/05/22 06:04:47;;;;;;;48.10;33.03;;;19.60;63.90;;;;;;4999017;28;20054;-90
2023/05/22 06:07:14;;;;;;;42.15;30.95;;;19.60;64.00;;;;;;5000307;28;20345;-88
2023/05/22 06:09:42;;;;;;;42.53;29.50;;;19.60;64.00;;;;;;4996548;28;20054;-88
2023/05/22 06:12:11;;;;;;;40.30;29.45;;;19.60;64.20;;;;;;4997572;28;20053;-91
2023/05/22 06:14:40;;;;;;;46.20;31.50;;;19.70;64.20;;;;;;4997299;28;20057;-88
2023/05/22 06:17:08;;;;;;;49.70;33.15;;;19.70;64.30;;;;;;4996745;28;20072;-88
2023/05/22 06:19:36;;;;;;;52.40;36.47;;;19.80;64.40;;;;;;4994486;28;20056;-91
2023/05/22 06:22:05;;;;;;;53.10;35.40;;;19.80;64.30;;;;;;4998371;28;20050;-90
2023/05/22 06:24:32;;;;;;;51.25;34.92;;;19.80;64.30;;;;;;5000195;28;20072;-92
2023/05/22 06:27:00;;;;;;;54.75;37.70;;;19.90;64.20;;;;;;5000375;28;20049;-89
2023/05/22 06:29:27;;;;;;;59.80;35.65;;;19.90;64.00;;;;;;4999895;28;20069;-88
2023/05/22 06:31:59;;;;;;;51.13;33.95;;;19.90;63.90;;;;;;4998025;28;20062;-90
2023/05/22 06:34:26;;;;;;;56.08;38.25;;;19.90;64.00;;;;;;5000375;28;20054;-89
2023/05/22 06:36:54;;;;;;;72.40;42.92;;;20.00;64.20;;;;;;5001417;28;20060;-89
2023/05/22 06:39:21;;;;;;;68.28;43.30;;;20.00;64.00;;;;;;4999884;28;20054;-88
2023/05/22 06:42:02;;;;;;;81.45;48.22;;;20.00;63.80;;;;;;5000799;28;20060;-93
2023/05/22 06:44:30;;;;;;;69.10;45.88;;;20.10;63.70;;;;;;5003943;28;20269;-89
2023/05/22 06:46:59;;;;;;;88.32;54.33;;;20.10;63.60;;;;;;4999152;28;21334;-88
2023/05/22 06:49:27;;;;;;;87.68;52.33;;;20.10;63.50;;;;;;5009622;28;20049;-88
2023/05/22 06:51:54;;;;;;;91.57;54.28;;;20.10;63.40;;;;;;4998285;28;20421;-89
2023/05/22 06:54:21;;;;;;;80.68;51.28;;;20.10;63.70;;;;;;5001452;28;20057;-88
2023/05/22 06:56:49;;;;;;;88.68;55.10;;;20.00;63.60;;;;;;5001601;28;20061;-89
2023/05/22 06:59:20;;;;;;;89.78;53.42;;;20.10;63.80;;;;;;4998942;28;20053;-87
2023/05/22 07:01:48;;;;;;;95.97;57.13;;;20.00;63.70;;;;;;4998958;28;20592;-87
2023/05/22 07:04:16;;;;;;;86.65;52.35;;;20.00;63.70;;;;;;5001796;28;20625;-87
2023/05/22 07:06:44;;;;;;;87.13;52.53;;;20.00;63.70;;;;;;4999335;28;20069;-88
2023/05/22 07:09:16;;;;;;;106.35;58.03;;;20.00;63.80;;;;;;5000973;28;20053;-89
2023/05/22 07:11:43;;;;;;;94.65;55.00;;;20.00;64.10;;;;;;4999768;28;20058;-87
2023/05/22 07:14:11;;;;;;;103.85;58.22;;;20.00;64.20;;;;;;4998418;28;20049;-88
2023/05/22 07:16:39;;;;;;;98.10;60.53;;;20.00;64.20;;;;;;4997173;28;20544;-88
2023/05/22 07:19:07;;;;;;;106.93;63.17;;;20.00;64.30;;;;;;4998655;28;20057;-88
2023/05/22 07:21:36;;;;;;;111.30;62.00;;;20.00;64.30;;;;;;5001369;28;20053;-88
2023/05/22 07:24:07;;;;;;;92.00;55.47;;;20.00;64.10;;;;;;5000979;28;20514;-89
2023/05/22 07:26:35;;;;;;;99.25;57.50;;;20.00;63.90;;;;;;5002060;28;20058;-89
2023/05/22 07:29:03;;;;;;;96.00;54.72;;;20.00;64.10;;;;;;4999585;28;20057;-90
2023/05/22 07:31:32;;;;;;;96.07;55.80;;;19.90;64.20;;;;;;4995628;28;20050;-88
2023/05/22 07:34:00;;;;;;;93.18;54.53;;;19.90;64.30;;;;;;5000366;28;20054;-88
2023/05/22 07:36:27;;;;;;;99.72;57.15;;;19.90;64.30;;;;;;4999068;28;20059;-89
2023/05/22 07:38:56;;;;;;;97.00;57.03;;;19.90;64.30;;;;;;4998612;28;20421;-90
2023/05/22 07:41:26;;;;;;;97.68;58.33;;;19.90;64.40;;;;;;4999764;28;20058;-87
2023/05/22 07:43:53;;;;;;;105.70;62.33;;;19.80;64.30;;;;;;5001182;28;20068;-90
2023/05/22 07:46:21;;;;;;;104.57;62.40;;;19.80;64.40;;;;;;4998832;28;20141;-89
2023/05/22 07:48:48;;;;;;;118.00;65.10;;;19.80;64.60;;;;;;4999452;28;20064;-88
2023/05/22 07:51:15;;;;;;;94.97;58.15;;;19.70;64.70;;;;;;5000829;28;20785;-88
2023/05/22 07:53:43;;;;;;;102.20;59.78;;;19.70;65.20;;;;;;4998669;28;20054;-89
2023/05/22 07:56:12;;;;;;;99.47;59.67;;;19.70;65.70;;;;;;4998104;28;20516;-91
2023/05/22 07:58:39;;;;;;;99.57;60.47;;;19.70;66.00;;;;;;5000659;28;20054;-88
2023/05/22 08:01:07;;;;;;;93.32;53.70;;;19.70;66.20;;;;;;4999029;28;20130;-89
2023/05/22 08:03:35;;;;;;;90.47;56.28;;;19.70;66.30;;;;;;5000719;28;20053;-89
2023/05/22 08:06:03;;;;;;;96.47;60.10;;;19.80;66.60;;;;;;5001520;28;20049;-90
2023/05/22 08:08:31;;;;;;;99.80;59.28;;;19.80;66.00;;;;;;5002274;28;20062;-90
2023/05/22 08:10:58;;;;;;;86.15;53.28;;;19.90;65.90;;;;;;5001815;28;20060;-88
2023/05/22 08:13:27;;;;;;;92.15;57.20;;;20.00;65.90;;;;;;5003278;28;20054;-88
2023/05/22 08:15:55;;;;;;;92.88;56.65;;;20.00;65.80;;;;;;5001850;28;20402;-87
2023/05/22 08:18:22;;;;;;;101.82;61.15;;;20.10;65.40;;;;;;5003509;28;20061;-87
2023/05/22 08:20:52;;;;;;;106.57;66.07;;;20.10;65.10;;;;;;5003522;28;20061;-89
2023/05/22 08:23:19;;;;;;;100.13;61.85;;;20.10;64.70;;;;;;5004679;28;20049;-86
2023/05/22 08:25:47;;;;;;;102.60;64.65;;;20.20;64.90;;;;;;5003882;28;20053;-87
2023/05/22 08:28:14;;;;;;;95.43;59.53;;;20.20;65.00;;;;;;5003008;28;20068;-89
2023/05/22 08:30:43;;;;;;;100.57;63.70;;;20.20;64.90;;;;;;5001752;28;20501;-89
2023/05/22 08:33:10;;;;;;;107.88;66.00;;;20.20;65.00;;;;;;5000885;28;20057;-90
2023/05/22 08:35:38;;;;;;;102.45;63.38;;;20.30;64.60;;;;;;5001214;28;20765;-88
2023/05/22 08:38:05;;;;;;;87.88;55.65;;;20.30;64.70;;;;;;5001701;28;20060;-89
2023/05/22 08:40:36;;;;;;;87.03;54.28;;;20.30;64.80;;;;;;5001708;28;20061;-90
2023/05/22 08:43:05;;;;;;;101.40;59.95;;;20.40;64.90;;;;;;5000803;28;20049;-89
2023/05/22 08:45:33;;;;;;;99.95;58.90;;;20.50;64.60;;;;;;5001667;28;20446;-89
2023/05/22 08:48:05;;;;;;;84.38;52.92;;;20.60;64.60;;;;;;5001406;28;20064;-89
2023/05/22 08:50:33;;;;;;;85.15;53.95;;;20.60;65.40;;;;;;5003424;28;20056;-89
2023/05/22 08:53:01;;;;;;;99.20;60.78;;;20.70;64.90;;;;;;5002413;28;20058;-89
2023/05/22 08:55:30;;;;;;;94.78;59.67;;;20.80;64.30;;;;;;5002343;28;20045;-88
2023/05/22 08:57:58;;;;;;;95.50;60.97;;;20.80;63.50;;;;;;5001110;28;20417;-90
2023/05/22 09:00:25;;;;;;;97.43;60.58;;;20.90;62.50;;;;;;4999998;28;20058;-89
2023/05/22 09:02:54;;;;;;;99.40;59.30;;;21.00;62.40;;;;;;5001706;28;20058;-90
2023/05/22 09:05:25;;;;;;;78.38;51.28;;;21.00;63.10;;;;;;5002320;28;20401;-89
2023/05/22 09:07:53;;;;;;;69.32;47.30;;;21.00;63.40;;;;;;5002990;28;20114;-89
2023/05/22 09:10:21;;;;;;;81.68;55.35;;;21.10;63.40;;;;;;5000452;28;20399;-89
2023/05/22 09:13:02;;;;;;;79.75;51.53;;;21.20;62.20;;;;;;5001477;28;20053;-89
2023/05/22 09:15:31;;;;;;;91.20;57.60;;;21.20;61.70;;;;;;5001524;28;20050;-89
2023/05/22 09:17:59;;;;;;;82.97;55.65;;;21.30;61.10;;;;;;4999761;28;20073;-89
2023/05/22 09:20:29;;;;;;;81.00;53.97;;;21.30;60.90;;;;;;5002171;28;20391;-90
2023/05/22 09:22:56;;;;;;;86.35;56.88;;;21.30;61.50;;;;;;5000891;28;20050;-89
2023/05/22 09:25:25;;;;;;;88.00;56.28;;;21.40;61.60;;;;;;5000321;28;20502;-90
2023/05/22 09:27:53;;;;;;;73.35;47.63;;;21.40;61.50;;;;;;5001598;28;20406;-91
2023/05/22 09:30:21;;;;;;;68.40;46.03;;;21.50;62.00;;;;;;4999774;28;20068;-91
2023/05/22 09:32:49;;;;;;;71.57;48.05;;;21.50;62.00;;;;;;4999423;28;21093;-91
2023/05/22 09:35:18;;;;;;;85.45;54.17;;;21.60;61.80;;;;;;4999605;28;20050;-89
2023/05/22 09:37:52;;;;;;;88.30;58.15;;;21.70;61.80;;;;;;5001942;28;21111;-91
2023/05/22 09:40:19;;;;;;;86.28;58.30;;;21.90;61.30;;;;;;5000093;28;20053;-90
2023/05/22 09:42:47;;;;;;;85.75;58.03;;;21.90;60.00;;;;;;5002697;28;20064;-90
2023/05/22 09:45:14;;;;;;;89.72;58.65;;;22.00;59.60;;;;;;5001330;28;20061;-90
2023/05/22 09:47:41;;;;;;;78.63;52.60;;;22.00;59.30;;;;;;5000221;28;20062;-91
2023/05/22 09:50:10;;;;;;;82.40;55.83;;;22.00;59.80;;;;;;5001290;28;20053;-89
2023/05/22 09:52:38;;;;;;;80.40;56.42;;;22.00;59.70;;;;;;5001004;28;20046;-89
2023/05/22 09:55:09;;;;;;;89.75;60.88;;;22.00;59.10;;;;;;5000941;28;20056;-89
2023/05/22 09:57:42;;;;;;;83.05;54.97;;;22.00;59.10;;;;;;5001451;28;21115;-90
2023/05/22 10:00:14;;;;;;;75.25;52.03;;;22.10;59.60;;;;;;5001397;28;20442;-90
2023/05/22 10:02:45;;;;;;;83.97;57.95;;;22.10;60.00;;;;;;5001496;28;20050;-89
2023/05/22 10:05:20;;;;;;;97.88;60.53;;;22.20;59.20;;;;;;5000507;28;20497;-89
2023/05/22 10:07:49;;;;;;;80.10;56.30;;;22.30;59.20;;;;;;5001360;28;20054;-89
2023/05/22 10:10:22;;;;;;;86.28;58.10;;;22.30;59.00;;;;;;5002106;28;20426;-90
2023/05/22 10:12:53;;;;;;;79.55;55.95;;;22.40;59.20;;;;;;5001428;28;20060;-91
2023/05/22 10:15:21;;;;;;;78.78;53.60;;;22.40;59.10;;;;;;5000605;28;20050;-90
2023/05/22 10:17:49;;;;;;;76.28;52.70;;;22.50;58.60;;;;;;4997442;28;20053;-89
2023/05/22 10:20:16;;;;;;;83.82;54.72;;;22.60;58.60;;;;;;5001057;28;20054;-90
2023/05/22 10:22:46;;;;;;;78.80;52.83;;;22.60;58.70;;;;;;5001222;28;20058;-88
2023/05/22 10:25:13;;;;;;;77.63;54.88;;;22.70;57.90;;;;;;5000319;28;20057;-89
2023/05/22 10:27:42;;;;;;;85.75;57.67;;;22.80;58.10;;;;;;5000580;28;20050;-88
2023/05/22 10:30:20;;;;;;;82.00;57.17;;;22.90;57.70;;;;;;5000600;28;20058;-89
2023/05/22 10:33:10;;;;;;;71.43;49.63;;;22.90;57.70;;;;;;5000518;28;20057;-90
2023/05/22 10:35:42;;;;;;;71.57;50.40;;;22.90;57.50;;;;;;4999534;28;20068;-90
2023/05/22 10:38:39;;;;;;;74.07;51.83;;;22.90;57.60;;;;;;5000161;28;20050;-90
2023/05/22 10:41:08;;;;;;;73.38;53.70;;;23.00;57.60;;;;;;5006315;28;20394;-90
2023/05/22 10:43:41;;;;;;;84.82;56.08;;;23.10;57.40;;;;;;5001618;28;20065;-90
2023/05/22 10:46:11;;;;;;;73.55;52.95;;;23.10;56.80;;;;;;4998212;28;20056;-92
2023/05/22 10:48:40;;;;;;;77.43;54.28;;;23.00;56.40;;;;;;4999447;28;20789;-90
2023/05/22 10:51:08;;;;;;;89.32;58.97;;;23.00;56.90;;;;;;4997999;28;20525;-90
2023/05/22 10:53:36;;;;;;;99.78;61.88;;;23.00;56.70;;;;;;5000308;28;20050;-90
2023/05/22 10:56:11;;;;;;;94.60;62.50;;;23.00;56.10;;;;;;5001230;28;20045;-89
2023/05/22 10:58:44;;;;;;;90.65;60.53;;;22.90;55.90;;;;;;5000864;28;20053;-92
2023/05/22 11:01:13;;;;;;;88.53;58.90;;;22.90;56.70;;;;;;4998406;28;20617;-89
2023/05/22 11:03:57;;;;;;;84.97;58.65;;;22.90;56.90;;;;;;4999331;28;20528;-92
2023/05/22 11:06:45;;;;;;;;;;;22.90;56.90;;;;;;5001889;28;20069;-91
2023/05/22 11:09:29;;;;;;;82.78;56.35;;;23.00;56.90;;;;;;4997309;28;19940;-92
2023/05/22 11:12:16;;;;;;;86.23;54.57;;;23.00;56.40;;;;;;5000343;28;20046;-90
2023/05/22 11:14:49;;;;;;;75.18;51.92;;;23.00;56.00;;;;;;4998751;28;20417;-90
2023/05/22 11:17:18;;;;;;;73.53;50.03;;;23.00;56.60;;;;;;4999470;28;20080;-92
2023/05/22 11:19:56;;;;;;;68.25;46.22;;;23.00;57.00;;;;;;4999167;28;21277;-91
2023/05/22 11:22:29;;;;;;;67.60;47.13;;;23.00;56.40;;;;;;5001498;28;20050;-91
2023/05/22 11:24:56;;;;;;;71.50;49.95;;;23.00;55.90;;;;;;5001544;28;20057;-93
2023/05/22 11:27:24;;;;;;;74.38;49.47;;;23.00;56.00;;;;;;4999325;28;20057;-92
2023/05/22 11:29:54;;;;;;;78.78;52.22;;;23.00;55.70;;;;;;5000726;28;20061;-91
2023/05/22 11:32:24;;;;;;;74.18;49.83;;;23.00;55.60;;;;;;4998440;28;20420;-91
2023/05/22 11:34:51;;;;;;;71.55;48.53;;;22.90;56.10;;;;;;5000673;28;20421;-92
2023/05/22 11:37:19;;;;;;;78.60;51.53;;;23.00;56.10;;;;;;5004880;28;20046;-91
2023/05/22 11:39:51;;;;;;;82.88;52.92;;;22.90;56.10;;;;;;4999554;28;20049;-93
2023/05/22 11:42:18;;;;;;;69.13;46.83;;;22.90;55.50;;;;;;5004826;28;20391;-91
2023/05/22 11:44:46;;;;;;;79.43;52.05;;;22.90;55.90;;;;;;5002731;28;20057;-92
2023/05/22 11:47:15;;;;;;;70.80;45.80;;;22.90;55.60;;;;;;5002650;28;20058;-91
2023/05/22 11:49:43;;;;;;;78.93;49.40;;;22.80;54.70;;;;;;5004287;28;20049;-92
2023/05/22 11:52:13;;;;;;;82.15;50.40;;;22.70;54.90;;;;;;5004360;28;20072;-93
2023/05/22 11:54:40;;;;;;;73.90;47.40;;;22.70;55.50;;;;;;5004305;28;20421;-92
2023/05/22 11:57:09;;;;;;;71.28;45.25;;;22.60;56.00;;;;;;5003166;28;20528;-93
2023/05/22 11:59:36;;;;;;;80.70;48.10;;;22.60;56.80;;;;;;5005956;28;20064;-91
2023/05/22 12:02:04;;;;;;;77.53;47.53;;;22.60;56.60;;;;;;5001410;28;20061;-94
2023/05/22 12:04:34;;;;;;;73.55;47.65;;;22.60;56.40;;;;;;5005079;28;20084;-92
2023/05/22 12:07:01;;;;;;;81.50;52.72;;;22.60;56.00;;;;;;5004415;28;20052;-91
2023/05/22 12:09:29;;;;;;;77.63;48.08;;;22.60;56.00;;;;;;5003306;28;20049;-93
2023/05/22 12:11:57;;;;;;;73.35;44.72;;;22.60;56.90;;;;;;5002254;28;20072;-90
2023/05/22 12:14:26;;;;;;;74.43;45.38;;;22.60;57.30;;;;;;5006186;28;20057;-90
2023/05/22 12:16:54;;;;;;;66.50;41.20;;;22.70;57.10;;;;;;5001075;28;20050;-91
2023/05/22 12:19:22;;;;;;;76.88;47.90;;;22.70;57.60;;;;;;5005496;28;20050;-93
2023/05/22 12:21:52;;;;;;;76.07;45.30;;;22.80;56.30;;;;;;5003992;28;20084;-92
2023/05/22 12:24:22;;;;;;;77.28;46.60;;;22.80;56.20;;;;;;5004058;28;20427;-91
2023/05/22 12:26:50;;;;;;;67.07;41.58;;;22.80;56.20;;;;;;5002621;28;20050;-91
2023/05/22 12:29:18;;;;;;;70.22;43.13;;;22.90;56.60;;;;;;5001337;28;20054;-92
2023/05/22 12:31:46;;;;;;;63.88;40.20;;;22.90;56.80;;;;;;5009613;28;20053;-92
2023/05/22 12:34:14;;;;;;;69.47;40.40;;;23.00;56.70;;;;;;5004229;28;20057;-94
2023/05/22 12:36:43;;;;;;;72.07;44.08;;;23.10;56.60;;;;;;5003311;28;20489;-93
2023/05/22 12:39:16;;;;;;;76.10;45.17;;;23.20;57.20;;;;;;5004286;28;20065;-92
2023/05/22 12:41:44;;;;;;;65.88;41.75;;;23.20;56.80;;;;;;5002880;28;20050;-91